Provo Municipal Airport Provo US
ICAO: KPVU
IATA: PVU
Category: Medium
Scheduled Services: No

Elevation: 4497 ft
TransAlt. 18000 ft.

Airport Communications:
SALT LAKE CITY APP:124.3
ATIS:135.175
AWOS 3:135.175
SALT LAKE CITY DEP:118.85
GND:119.4
TWR:125.3
CTAF/UNICOM:125.3

KPVU Zoom In..

Runways:

(A) RW 13 length 8599 ft width 150 ft
ILS 110.30 / hdg 134

(B) RW 18 length 6614 ft width 150 ft
---- / hdg 180

(C) RW 31 length 8599 ft width 150 ft
---- / hdg 314

(D) RW 36 length 6614 ft width 150 ft
---- / hdg 360

Location; KPVU
Day. 30 / Time. 19.56 Zulu
* Altimeter: 29.94
* Temperature: 34° c. 93.2°f.
* Wind from: 130° Speed 16 kn with Gusts up to 21 kn.
Dewpoint: 03° c.
Visibility: 10 Statute Miles.
Clouds: Scattered 8000 ft.
Clouds: Scattered 14000 ft.
Clouds: Broken 23000 ft.

KPVU 301956Z 13016G21KT 10SM SCT080 SCT140 BKN230 34/03 A2994 RMK AO2 SLP064 T03440033


Wind From 130°
Speed 16 kn.

 
 
jpsmedia worldairports.se 2020   terms of use